createdAt,value
2018-04-10T00:01:33.653Z,19.65
2018-04-10T00:04:01.962Z,20.10
2018-04-10T00:06:30.228Z,19.50
2018-04-10T00:08:58.518Z,20.60
2018-04-10T00:11:26.798Z,20.33
2018-04-10T00:13:55.162Z,20.87
2018-04-10T00:16:23.432Z,21.15
2018-04-10T00:18:51.701Z,20.45
2018-04-10T00:21:19.983Z,21.10
2018-04-10T00:23:48.261Z,20.10
2018-04-10T00:26:16.527Z,20.50
2018-04-10T00:28:44.805Z,20.17
2018-04-10T00:31:13.090Z,20.55
2018-04-10T00:33:41.347Z,21.77
2018-04-10T00:36:09.639Z,21.87
2018-04-10T00:38:37.917Z,21.08
2018-04-10T00:41:06.178Z,20.20
2018-04-10T00:43:34.474Z,20.83
2018-04-10T00:46:02.746Z,21.37
2018-04-10T00:48:31.123Z,20.90
2018-04-10T00:50:59.374Z,20.92
2018-04-10T00:53:36.493Z,21.02
2018-04-10T00:56:04.751Z,20.90
2018-04-10T00:58:33.037Z,21.73
2018-04-10T01:01:01.290Z,22.17
2018-04-10T01:03:29.546Z,23.45
2018-04-10T01:05:57.807Z,21.42
2018-04-10T01:08:26.847Z,21.83
2018-04-10T01:10:55.136Z,21.05
2018-04-10T01:13:23.508Z,21.27
2018-04-10T01:15:51.780Z,22.90
2018-04-10T01:18:20.044Z,23.00
2018-04-10T01:20:48.344Z,22.85
2018-04-10T01:23:17.528Z,21.90
2018-04-10T01:25:45.813Z,22.58
2018-04-10T01:28:14.076Z,21.20
2018-04-10T01:30:42.332Z,22.48
2018-04-10T01:33:10.636Z,21.95
2018-04-10T01:35:38.912Z,21.65
2018-04-10T01:38:07.283Z,22.37
2018-04-10T01:40:35.540Z,22.27
2018-04-10T01:43:03.812Z,22.62
2018-04-10T01:45:32.067Z,21.65
2018-04-10T01:48:01.099Z,22.85
2018-04-10T01:50:29.363Z,24.35
2018-04-10T01:52:57.641Z,24.05
2018-04-10T01:55:25.902Z,24.30
2018-04-10T01:57:54.164Z,22.52
2018-04-10T02:00:23.184Z,20.50
2018-04-10T02:02:51.492Z,21.90
2018-04-10T02:05:19.853Z,21.12
2018-04-10T02:07:48.133Z,21.23
2018-04-10T02:10:16.404Z,24.40
2018-04-10T02:12:44.688Z,23.45
2018-04-10T02:15:12.943Z,21.75
2018-04-10T02:17:41.236Z,20.77
2018-04-10T02:20:09.502Z,22.05
2018-04-10T02:22:37.765Z,22.25
2018-04-10T02:25:06.035Z,23.15
2018-04-10T02:27:34.343Z,22.70
2018-04-10T02:30:02.608Z,22.75
2018-04-10T02:32:30.873Z,22.15
2018-04-10T02:34:59.168Z,22.50
2018-04-10T02:37:27.425Z,22.20
2018-04-10T02:39:55.681Z,21.27
2018-04-10T02:42:23.988Z,22.92
2018-04-10T02:44:52.260Z,22.80
2018-04-10T02:47:20.497Z,22.20
2018-04-10T02:49:48.764Z,21.12
2018-04-10T02:52:17.808Z,24.12
2018-04-10T02:54:46.109Z,22.95
2018-04-10T02:57:14.467Z,22.30
2018-04-10T02:59:42.755Z,22.55
2018-04-10T03:02:11.024Z,23.15
2018-04-10T03:04:39.288Z,22.42
2018-04-10T03:07:07.547Z,23.48
2018-04-10T03:09:35.885Z,23.42
2018-04-10T03:12:04.219Z,23.15
2018-04-10T03:14:32.520Z,24.00
2018-04-10T03:17:00.784Z,23.50
2018-04-10T03:19:29.052Z,24.65
2018-04-10T03:21:57.308Z,23.52
2018-04-10T03:24:25.552Z,23.30
2018-04-10T03:26:54.581Z,24.30
2018-04-10T03:29:22.844Z,23.73
2018-04-10T03:31:51.096Z,23.27
2018-04-10T03:34:20.112Z,23.92
2018-04-10T03:36:48.417Z,24.05
2018-04-10T03:39:16.692Z,23.50
2018-04-10T03:41:44.969Z,23.38
2018-04-10T03:44:13.333Z,22.70
2018-04-10T03:46:41.592Z,23.60
2018-04-10T03:49:09.867Z,22.62
2018-04-10T03:51:38.120Z,23.58
2018-04-10T03:54:07.137Z,24.30
2018-04-10T03:56:35.416Z,22.87
2018-04-10T03:59:03.666Z,24.60
2018-04-10T04:01:32.704Z,24.12
2018-04-10T04:04:00.961Z,23.73
2018-04-10T04:06:29.220Z,24.90
2018-04-10T04:08:57.474Z,24.65
2018-04-10T04:11:26.508Z,23.80
2018-04-10T04:13:54.772Z,25.00
2018-04-10T04:16:34.949Z,25.90
2018-04-10T04:19:15.319Z,24.73
2018-04-10T04:21:54.446Z,25.15
2018-04-10T04:24:22.717Z,23.90
2018-04-10T04:26:50.979Z,24.75
2018-04-10T04:29:19.268Z,25.55
2018-04-10T04:31:47.543Z,25.00
2018-04-10T04:34:15.808Z,24.40
2018-04-10T04:36:44.092Z,24.52
2018-04-10T04:39:12.360Z,25.98
2018-04-10T04:41:40.609Z,24.52
2018-04-10T04:44:08.922Z,25.83
2018-04-10T04:46:37.167Z,25.88
2018-04-10T04:49:05.485Z,25.30
2018-04-10T04:51:33.748Z,24.55
2018-04-10T04:54:02.012Z,25.55
2018-04-10T04:56:36.288Z,24.40
2018-04-10T04:59:04.532Z,26.12
2018-04-10T05:01:32.892Z,24.35
2018-04-10T05:04:13.218Z,25.77
2018-04-10T05:06:42.220Z,25.90
2018-04-10T05:09:10.488Z,26.42
2018-04-10T05:11:38.748Z,26.58
2018-04-10T05:14:07.789Z,26.23
2018-04-10T05:16:36.049Z,26.33
2018-04-10T05:19:04.317Z,25.55
2018-04-10T05:21:32.589Z,24.83
2018-04-10T05:24:00.856Z,24.55
2018-04-10T05:26:29.124Z,24.98
2018-04-10T05:28:57.539Z,25.63
2018-04-10T05:31:25.854Z,25.97
2018-04-10T05:33:54.101Z,24.57
2018-04-10T05:36:22.368Z,24.63
2018-04-10T05:38:50.647Z,24.50
2018-04-10T05:41:18.955Z,24.30
2018-04-10T05:43:47.203Z,24.57
2018-04-10T05:46:15.480Z,24.77
2018-04-10T05:48:43.756Z,26.93
2018-04-10T05:51:12.017Z,26.90
2018-04-10T05:53:40.271Z,28.50
2018-04-10T05:56:08.532Z,27.87
2018-04-10T05:58:36.853Z,29.33
2018-04-10T06:01:05.108Z,30.43
2018-04-10T06:03:33.360Z,33.00
2018-04-10T06:06:01.674Z,32.80
2018-04-10T06:08:29.934Z,32.70
2018-04-10T06:10:58.188Z,30.63
2018-04-10T06:13:26.509Z,31.57
2018-04-10T06:15:54.778Z,29.93
2018-04-10T06:18:23.034Z,29.27
2018-04-10T06:20:51.294Z,30.63
2018-04-10T06:23:19.609Z,30.27
2018-04-10T06:25:47.868Z,30.90
2018-04-10T06:28:16.124Z,30.00
2018-04-10T06:30:44.387Z,30.93
2018-04-10T06:33:13.406Z,30.53
2018-04-10T06:35:41.676Z,30.07
2018-04-10T06:38:09.928Z,29.50
2018-04-10T06:40:38.965Z,28.97
2018-04-10T06:43:07.276Z,30.23
2018-04-10T06:45:35.509Z,28.27
2018-04-10T06:48:03.792Z,29.67
2018-04-10T06:50:32.052Z,29.40
2018-04-10T06:53:00.346Z,28.73
2018-04-10T06:55:28.625Z,28.33
2018-04-10T06:57:56.893Z,27.93
2018-04-10T07:00:25.180Z,26.93
2018-04-10T07:02:53.437Z,28.43
2018-04-10T07:05:21.695Z,27.17
2018-04-10T07:07:49.992Z,28.07
2018-04-10T07:10:18.276Z,28.40
2018-04-10T07:12:46.533Z,30.70
2018-04-10T07:15:14.798Z,28.30
2018-04-10T07:17:43.092Z,30.30
2018-04-10T07:20:11.481Z,29.53
2018-04-10T07:22:39.733Z,29.33
2018-04-10T07:25:07.989Z,29.77
2018-04-10T07:27:36.251Z,31.30
2018-04-10T07:30:05.297Z,30.30
2018-04-10T07:32:33.572Z,29.50
2018-04-10T07:35:01.845Z,30.40
2018-04-10T07:37:30.128Z,30.57
2018-04-10T07:39:58.444Z,31.50
2018-04-10T07:42:27.469Z,32.13
2018-04-10T07:44:56.130Z,31.47
2018-04-10T07:47:24.385Z,31.90
2018-04-10T07:49:52.632Z,32.10
2018-04-10T07:52:20.891Z,34.13
2018-04-10T07:54:49.183Z,32.27
2018-04-10T07:57:17.447Z,31.93
2018-04-10T07:59:45.739Z,32.60
2018-04-10T08:02:13.996Z,32.27
2018-04-10T08:04:42.280Z,32.40
2018-04-10T08:07:10.512Z,31.50
2018-04-10T08:09:39.550Z,32.73
2018-04-10T08:12:11.039Z,32.10
2018-04-10T08:14:39.268Z,31.73
2018-04-10T08:17:07.524Z,31.00
2018-04-10T08:19:35.785Z,30.77
2018-04-10T08:22:04.821Z,32.67
2018-04-10T08:24:33.076Z,33.57
2018-04-10T08:27:01.404Z,32.77
2018-04-10T08:29:29.744Z,32.13
2018-04-10T08:31:58.029Z,30.97
2018-04-10T08:34:26.271Z,32.03
2018-04-10T08:36:54.540Z,32.13
2018-04-10T08:39:22.853Z,31.83
2018-04-10T08:41:51.111Z,33.93
2018-04-10T08:44:19.373Z,33.93
2018-04-10T08:46:47.672Z,34.17
2018-04-10T08:49:15.951Z,34.13
2018-04-10T08:51:44.226Z,34.50
2018-04-10T08:54:12.473Z,34.53
2018-04-10T08:56:40.776Z,32.83
2018-04-10T08:59:09.039Z,32.83
2018-04-10T09:01:37.302Z,33.83
2018-04-10T09:04:05.639Z,33.67
2018-04-10T09:06:33.873Z,34.47
2018-04-10T09:09:02.156Z,35.63
2018-04-10T09:11:30.421Z,33.97
2018-04-10T09:13:58.681Z,34.67
2018-04-10T09:16:26.972Z,34.13
2018-04-10T09:18:55.252Z,34.97
2018-04-10T09:21:23.505Z,35.20
2018-04-10T09:23:51.805Z,35.23
2018-04-10T09:26:20.084Z,34.47
2018-04-10T09:28:48.356Z,36.90
2018-04-10T09:31:16.644Z,35.00
2018-04-10T09:33:44.917Z,35.60
2018-04-10T09:36:13.187Z,38.40
2018-04-10T09:38:41.455Z,37.53
2018-04-10T09:41:09.737Z,36.80
2018-04-10T09:43:38.168Z,37.87
2018-04-10T09:46:06.398Z,38.93
2018-04-10T09:48:34.683Z,38.50
2018-04-10T09:51:02.948Z,42.00
2018-04-10T09:53:31.203Z,37.93
2018-04-10T09:55:59.593Z,37.50
2018-04-10T09:58:27.876Z,37.30
2018-04-10T10:00:56.139Z,38.83
2018-04-10T10:03:24.428Z,39.97
2018-04-10T10:05:52.684Z,38.70
2018-04-10T10:08:20.984Z,38.93
2018-04-10T10:10:49.256Z,38.10
2018-04-10T10:13:17.529Z,37.97
2018-04-10T10:15:45.781Z,37.07
2018-04-10T10:18:14.092Z,36.17
2018-04-10T10:20:42.345Z,36.47
2018-04-10T10:23:10.633Z,38.00
2018-04-10T10:25:38.884Z,39.87
2018-04-10T10:28:07.168Z,39.90
2018-04-10T10:30:35.460Z,40.27
2018-04-10T10:33:24.096Z,39.13
2018-04-10T10:35:52.429Z,40.90
2018-04-10T10:38:20.770Z,40.90
2018-04-10T10:40:49.067Z,40.40
2018-04-10T10:43:17.325Z,39.63
2018-04-10T10:45:45.612Z,39.83
2018-04-10T10:48:13.996Z,39.30
2018-04-10T10:50:42.277Z,39.80
2018-04-10T10:53:10.532Z,40.60
2018-04-10T10:55:38.788Z,38.50
2018-04-10T10:58:07.137Z,38.90
2018-04-10T11:00:35.369Z,38.83
2018-04-10T11:03:03.625Z,39.33
2018-04-10T11:05:31.880Z,39.73
2018-04-10T11:08:00.905Z,38.57
2018-04-10T11:10:29.177Z,39.50
2018-04-10T11:12:57.464Z,37.97
2018-04-10T11:15:25.724Z,37.90
2018-04-10T11:17:53.976Z,37.40
2018-04-10T11:20:23.032Z,37.83
2018-04-10T11:22:51.389Z,37.63
2018-04-10T11:25:19.695Z,38.90
2018-04-10T11:27:47.936Z,39.50
2018-04-10T11:30:16.196Z,40.67
2018-04-10T11:32:44.449Z,39.83
2018-04-10T11:35:12.764Z,40.53
2018-04-10T11:37:41.015Z,39.63
2018-04-10T11:40:09.281Z,40.27
2018-04-10T11:42:37.601Z,38.83
2018-04-10T11:45:05.860Z,38.30
2018-04-10T11:47:34.111Z,39.70
2018-04-10T11:50:02.382Z,39.43
2018-04-10T11:52:30.656Z,38.47
2018-04-10T11:54:58.963Z,38.03
2018-04-10T11:57:27.256Z,38.53
2018-04-10T11:59:55.738Z,38.47
2018-04-10T12:02:23.995Z,40.27
2018-04-10T12:04:52.261Z,40.80
2018-04-10T12:07:20.517Z,39.90
2018-04-10T12:09:48.777Z,40.30
2018-04-10T12:12:17.821Z,39.57
2018-04-10T12:14:46.196Z,38.60
2018-04-10T12:17:14.470Z,39.37
2018-04-10T12:19:42.728Z,39.90
2018-04-10T12:22:11.033Z,39.87
2018-04-10T12:24:39.296Z,40.07
2018-04-10T12:27:07.577Z,40.03
2018-04-10T12:29:35.848Z,40.70
2018-04-10T12:32:04.109Z,39.63
2018-04-10T12:34:32.599Z,40.23
2018-04-10T12:37:00.890Z,38.50
2018-04-10T12:39:29.122Z,39.20
2018-04-10T12:41:57.432Z,38.03
2018-04-10T12:44:25.723Z,36.53
2018-04-10T12:46:53.979Z,38.17
2018-04-10T12:49:22.232Z,37.30
2018-04-10T12:51:50.508Z,39.53
2018-04-10T12:54:18.769Z,37.20
2018-04-10T12:56:48.000Z,37.27
2018-04-10T12:59:16.292Z,39.13
2018-04-10T13:01:44.588Z,38.27
2018-04-10T13:04:12.835Z,37.07
2018-04-10T13:06:41.091Z,37.57
2018-04-10T13:09:09.380Z,37.07
2018-04-10T13:11:37.652Z,36.77
2018-04-10T13:14:05.909Z,37.67
2018-04-10T13:16:34.173Z,39.03
2018-04-10T13:19:02.531Z,39.20
2018-04-10T13:21:32.326Z,39.27
2018-04-10T13:24:00.565Z,40.70
2018-04-10T13:26:28.832Z,41.43
2018-04-10T13:28:57.148Z,43.30
2018-04-10T13:31:26.197Z,40.03
2018-04-10T13:33:54.456Z,43.17
2018-04-10T13:36:22.759Z,42.60
2018-04-10T13:38:51.108Z,40.67
2018-04-10T13:41:19.368Z,42.00
2018-04-10T13:43:48.384Z,42.43
2018-04-10T13:46:16.649Z,42.07
2018-04-10T13:48:44.908Z,41.30
2018-04-10T13:51:13.947Z,42.37
2018-04-10T13:53:42.208Z,40.70
2018-04-10T13:56:10.504Z,38.37
2018-04-10T13:58:38.781Z,37.70
2018-04-10T14:01:07.061Z,35.03
2018-04-10T14:03:35.344Z,34.63
2018-04-10T14:06:03.742Z,35.73
2018-04-10T14:08:31.985Z,36.23
2018-04-10T14:11:00.236Z,35.70
2018-04-10T14:13:28.504Z,34.03
2018-04-10T14:15:56.758Z,33.43
2018-04-10T14:18:25.791Z,33.97
2018-04-10T14:20:54.077Z,33.03
2018-04-10T14:23:22.357Z,32.70
2018-04-10T14:25:50.628Z,33.00
2018-04-10T14:28:18.904Z,32.07
2018-04-10T14:30:47.164Z,32.20
2018-04-10T14:33:15.424Z,32.33
2018-04-10T14:35:43.679Z,32.27
2018-04-10T14:38:12.696Z,29.70
2018-04-10T14:40:40.957Z,31.27
2018-04-10T14:43:09.995Z,31.77
2018-04-10T14:45:38.269Z,31.00
2018-04-10T14:48:06.532Z,32.20
2018-04-10T14:50:34.795Z,31.93
2018-04-10T14:53:03.049Z,32.00
2018-04-10T14:55:32.072Z,29.20
2018-04-10T14:58:00.336Z,31.77
2018-04-10T15:00:28.593Z,30.07
2018-04-10T15:02:57.632Z,29.00
2018-04-10T15:05:25.882Z,27.50
2018-04-10T15:07:54.176Z,29.13
2018-04-10T15:10:22.491Z,37.97
2018-04-10T15:12:50.736Z,25.70
2018-04-10T15:15:19.004Z,29.23
2018-04-10T15:17:47.282Z,33.90
2018-04-10T15:20:15.557Z,28.13
2018-04-10T15:22:43.812Z,29.77
2018-04-10T15:25:12.065Z,28.40
2018-04-10T15:27:41.092Z,29.27
2018-04-10T15:30:09.349Z,30.63
2018-04-10T15:32:37.612Z,29.70
2018-04-10T15:35:06.648Z,28.50
2018-04-10T15:37:34.921Z,30.40
2018-04-10T15:40:03.204Z,29.53
2018-04-10T15:42:31.852Z,28.50
2018-04-10T15:45:00.859Z,27.03
2018-04-10T15:47:29.176Z,24.40
2018-04-10T15:49:57.428Z,22.40
2018-04-10T15:52:25.686Z,21.40
2018-04-10T15:54:53.972Z,20.80
2018-04-10T15:57:22.257Z,22.43
2018-04-10T15:59:50.526Z,22.60
2018-04-10T16:02:18.795Z,22.07
2018-04-10T16:04:47.084Z,17.50
2018-04-10T16:07:15.336Z,16.97
2018-04-10T16:09:43.633Z,13.93
2018-04-10T16:12:11.909Z,12.60
2018-04-10T16:14:40.179Z,7.97
2018-04-10T16:17:08.460Z,6.50
2018-04-10T16:19:36.738Z,5.93
2018-04-10T16:22:04.988Z,5.43
2018-04-10T16:24:33.240Z,5.43
2018-04-10T16:27:02.272Z,5.40
2018-04-10T16:29:30.575Z,5.00
2018-04-10T16:31:58.816Z,5.13
2018-04-10T16:34:27.139Z,5.47
2018-04-10T16:36:55.352Z,4.90
2018-04-10T16:39:23.607Z,4.90
2018-04-10T16:41:52.612Z,4.50
2018-04-10T16:44:20.920Z,4.60
2018-04-10T16:46:49.191Z,4.50
2018-04-10T16:49:17.448Z,5.00
2018-04-10T16:51:45.777Z,5.07
2018-04-10T16:54:14.123Z,4.40
2018-04-10T16:56:42.402Z,4.60
2018-04-10T16:59:10.654Z,4.60
2018-04-10T17:01:38.947Z,4.80
2018-04-10T17:04:07.206Z,4.83
2018-04-10T17:06:35.500Z,4.53
2018-04-10T17:09:03.760Z,4.60
2018-04-10T17:11:32.056Z,4.30
2018-04-10T17:14:00.333Z,4.40
2018-04-10T17:16:28.604Z,4.20
2018-04-10T17:18:56.876Z,3.87
2018-04-10T17:21:25.135Z,4.73
2018-04-10T17:23:53.372Z,4.73
2018-04-10T17:26:21.628Z,3.73
2018-04-10T17:28:49.872Z,4.00
2018-04-10T17:31:18.123Z,4.43
2018-04-10T17:33:47.132Z,4.20
2018-04-10T17:36:15.384Z,4.20
2018-04-10T17:38:44.405Z,4.00
2018-04-10T17:41:13.404Z,4.00
2018-04-10T17:43:41.648Z,4.50
2018-04-10T17:46:10.680Z,4.47
2018-04-10T17:48:38.919Z,4.17
2018-04-10T17:51:07.936Z,3.90
2018-04-10T17:53:36.379Z,3.63
2018-04-10T17:56:04.677Z,4.00
2018-04-10T17:58:32.868Z,3.60
2018-04-10T18:01:01.116Z,3.80
2018-04-10T18:03:30.128Z,4.10
2018-04-10T18:05:58.372Z,3.77
2018-04-10T18:08:26.618Z,3.47
2018-04-10T18:10:54.869Z,3.63
2018-04-10T18:13:23.116Z,3.33
2018-04-10T18:15:52.128Z,3.80
2018-04-10T18:18:20.372Z,3.87
2018-04-10T18:20:49.408Z,3.63
2018-04-10T18:23:17.648Z,3.60
2018-04-10T18:25:46.663Z,3.60
2018-04-10T18:28:14.908Z,3.60
2018-04-10T18:30:43.942Z,4.00
2018-04-10T18:33:12.189Z,4.00
2018-04-10T18:35:41.228Z,3.70
2018-04-10T18:38:09.474Z,3.97
2018-04-10T18:40:37.733Z,4.10
2018-04-10T18:43:06.778Z,4.03
2018-04-10T18:45:35.028Z,4.10
2018-04-10T18:48:03.278Z,3.60
2018-04-10T18:50:32.306Z,3.73
2018-04-10T18:53:00.561Z,3.90
2018-04-10T18:55:28.831Z,4.30
2018-04-10T18:57:57.086Z,3.90
2018-04-10T19:00:26.117Z,4.30
2018-04-10T19:02:54.377Z,4.00
2018-04-10T19:05:22.636Z,4.20
2018-04-10T19:07:51.658Z,4.23
2018-04-10T19:10:19.932Z,3.67
2018-04-10T19:12:48.185Z,4.10
2018-04-10T19:15:17.208Z,4.23
2018-04-10T19:17:46.214Z,3.90
2018-04-10T19:20:14.452Z,4.07
2018-04-10T19:22:42.705Z,3.37
2018-04-10T19:25:10.956Z,3.63
2018-04-10T19:27:39.196Z,3.40
2018-04-10T19:30:07.481Z,3.80
2018-04-10T19:32:36.829Z,4.13
2018-04-10T19:35:05.060Z,4.17
2018-04-10T19:37:33.308Z,4.53
2018-04-10T19:40:01.557Z,4.30
2018-04-10T19:42:29.799Z,3.77
2018-04-10T19:44:58.075Z,4.23
2018-04-10T19:47:26.319Z,4.40
2018-04-10T19:49:54.565Z,3.70
2018-04-10T19:52:23.580Z,3.60
2018-04-10T19:54:51.835Z,3.20
2018-04-10T19:57:20.848Z,3.57
2018-04-10T19:59:49.099Z,3.60
2018-04-10T20:02:18.116Z,3.63
2018-04-10T20:04:46.415Z,3.70
2018-04-10T20:07:15.390Z,3.63
2018-04-10T20:09:43.631Z,3.20
2018-04-10T20:12:12.654Z,3.70
2018-04-10T20:14:40.900Z,4.07
2018-04-10T20:17:09.148Z,3.57
2018-04-10T20:19:37.396Z,4.40
2018-04-10T20:22:05.656Z,3.97
2018-04-10T20:24:33.902Z,4.23
2018-04-10T20:27:02.916Z,4.10
2018-04-10T20:29:31.168Z,4.00
2018-04-10T20:32:00.183Z,3.53
2018-04-10T20:34:28.438Z,3.80
2018-04-10T20:36:57.448Z,3.90
2018-04-10T20:39:25.708Z,4.20
2018-04-10T20:41:54.720Z,4.03
2018-04-10T20:44:22.974Z,3.87
2018-04-10T20:46:51.993Z,3.60
2018-04-10T20:49:20.252Z,3.43
2018-04-10T20:51:49.260Z,3.77
2018-04-10T20:54:17.521Z,3.77
2018-04-10T20:56:45.772Z,3.80
2018-04-10T20:59:14.788Z,3.63
2018-04-10T21:01:43.037Z,3.93
2018-04-10T21:04:11.302Z,4.10
2018-04-10T21:06:39.545Z,3.83
2018-04-10T21:09:07.792Z,3.53
2018-04-10T21:11:36.045Z,4.00
2018-04-10T21:14:05.056Z,3.87
2018-04-10T21:16:33.305Z,3.90
2018-04-10T21:19:01.579Z,4.73
2018-04-10T21:21:30.080Z,4.63
2018-04-10T21:23:59.101Z,5.47
2018-04-10T21:26:27.348Z,8.13
2018-04-10T21:28:56.376Z,7.00
2018-04-10T21:31:24.645Z,9.83
2018-04-10T21:33:52.888Z,9.27
2018-04-10T21:36:21.913Z,8.73
2018-04-10T21:38:50.185Z,13.30
2018-04-10T21:41:18.441Z,11.00
2018-04-10T21:43:46.747Z,12.43
2018-04-10T21:46:15.753Z,15.00
2018-04-10T21:48:44.007Z,15.10
2018-04-10T21:51:12.260Z,16.27
2018-04-10T21:53:40.525Z,16.97
2018-04-10T21:56:09.580Z,17.23
2018-04-10T21:58:37.836Z,19.17
2018-04-10T22:01:06.096Z,19.43
2018-04-10T22:03:34.364Z,20.73
2018-04-10T22:06:02.624Z,19.83
2018-04-10T22:08:31.648Z,20.50
2018-04-10T22:10:59.904Z,22.37
2018-04-10T22:13:28.168Z,22.33
2018-04-10T22:15:56.433Z,21.17
2018-04-10T22:18:25.460Z,21.73
2018-04-10T22:20:53.712Z,21.63
2018-04-10T22:23:22.740Z,22.63
2018-04-10T22:25:51.004Z,23.17
2018-04-10T22:28:19.272Z,23.43
2018-04-10T22:30:47.536Z,24.97
2018-04-10T22:33:15.759Z,23.67
2018-04-10T22:35:44.781Z,24.17
2018-04-10T22:38:13.042Z,23.00
2018-04-10T22:40:42.072Z,26.30
2018-04-10T22:43:10.333Z,25.23
2018-04-10T22:45:38.600Z,24.93
2018-04-10T22:48:06.848Z,24.73
2018-04-10T22:50:35.118Z,25.57
2018-04-10T22:53:03.371Z,24.33
2018-04-10T22:55:31.638Z,23.93
2018-04-10T22:57:59.894Z,24.40
2018-04-10T23:03:26.688Z,24.57
2018-04-10T23:05:54.949Z,23.37
2018-04-10T23:08:23.206Z,24.53
2018-04-10T23:10:51.479Z,24.37
2018-04-10T23:13:19.736Z,24.43
2018-04-10T23:15:48.776Z,23.63
2018-04-10T23:18:17.076Z,25.20
2018-04-10T23:20:45.349Z,24.93
2018-04-10T23:23:13.620Z,25.37
2018-04-10T23:25:41.902Z,23.80
2018-04-10T23:28:10.164Z,26.75
2018-04-10T23:30:38.470Z,25.45
2018-04-10T23:33:06.833Z,25.93
2018-04-10T23:35:35.105Z,26.50
2018-04-10T23:38:03.384Z,25.25
2018-04-10T23:40:31.675Z,24.58
2018-04-10T23:42:59.937Z,24.40
2018-04-10T23:45:28.214Z,24.55
2018-04-10T23:47:56.481Z,25.12
2018-04-10T23:50:24.777Z,24.67
2018-04-10T23:52:53.037Z,25.37
2018-04-10T23:55:21.341Z,25.25
2018-04-10T23:57:49.568Z,24.77
